sensor_id;sensor_type;location;lat;lon;timestamp;P1;durP1;ratioP1;P2;durP2;ratioP2
21721;SDS011;11023;48.274;7.794;2022-07-18T00:01:29;3.40;;;1.95;;
21721;SDS011;11023;48.274;7.794;2022-07-18T00:03:55;5.07;;;1.80;;
21721;SDS011;11023;48.274;7.794;2022-07-18T00:06:21;3.65;;;1.85;;
21721;SDS011;11023;48.274;7.794;2022-07-18T00:08:46;3.53;;;1.83;;
21721;SDS011;11023;48.274;7.794;2022-07-18T00:11:12;3.45;;;1.90;;
21721;SDS011;11023;48.274;7.794;2022-07-18T00:13:38;2.13;;;1.55;;
21721;SDS011;11023;48.274;7.794;2022-07-18T00:16:04;5.20;;;1.90;;
21721;SDS011;11023;48.274;7.794;2022-07-18T00:18:30;2.00;;;1.67;;
21721;SDS011;11023;48.274;7.794;2022-07-18T00:20:55;1.75;;;1.52;;
21721;SDS011;11023;48.274;7.794;2022-07-18T00:23:21;2.30;;;1.80;;
21721;SDS011;11023;48.274;7.794;2022-07-18T00:25:47;2.47;;;1.90;;
21721;SDS011;11023;48.274;7.794;2022-07-18T00:28:12;4.32;;;1.90;;
21721;SDS011;11023;48.274;7.794;2022-07-18T00:30:38;3.97;;;1.88;;
21721;SDS011;11023;48.274;7.794;2022-07-18T00:33:04;4.07;;;2.00;;
21721;SDS011;11023;48.274;7.794;2022-07-18T00:35:30;2.92;;;2.10;;
21721;SDS011;11023;48.274;7.794;2022-07-18T00:37:56;3.40;;;2.10;;
21721;SDS011;11023;48.274;7.794;2022-07-18T00:40:22;3.45;;;1.90;;
21721;SDS011;11023;48.274;7.794;2022-07-18T00:42:47;5.18;;;2.00;;
21721;SDS011;11023;48.274;7.794;2022-07-18T00:45:13;4.30;;;2.10;;
21721;SDS011;11023;48.274;7.794;2022-07-18T00:47:39;3.53;;;1.92;;
21721;SDS011;11023;48.274;7.794;2022-07-18T00:50:05;2.90;;;2.10;;
21721;SDS011;11023;48.274;7.794;2022-07-18T00:52:33;3.75;;;2.17;;
21721;SDS011;11023;48.274;7.794;2022-07-18T00:54:59;3.63;;;2.10;;
21721;SDS011;11023;48.274;7.794;2022-07-18T00:57:25;5.32;;;2.15;;
21721;SDS011;11023;48.274;7.794;2022-07-18T00:59:51;3.72;;;1.98;;
21721;SDS011;11023;48.274;7.794;2022-07-18T01:02:36;3.75;;;2.00;;
21721;SDS011;11023;48.274;7.794;2022-07-18T01:05:02;4.88;;;2.30;;
21721;SDS011;11023;48.274;7.794;2022-07-18T01:07:28;4.07;;;2.20;;
21721;SDS011;11023;48.274;7.794;2022-07-18T01:09:54;4.72;;;2.25;;
21721;SDS011;11023;48.274;7.794;2022-07-18T01:12:19;5.50;;;2.28;;
21721;SDS011;11023;48.274;7.794;2022-07-18T01:14:45;5.25;;;2.28;;
21721;SDS011;11023;48.274;7.794;2022-07-18T01:17:16;5.57;;;2.20;;
21721;SDS011;11023;48.274;7.794;2022-07-18T01:19:43;5.40;;;2.38;;
21721;SDS011;11023;48.274;7.794;2022-07-18T01:22:10;6.90;;;2.30;;
21721;SDS011;11023;48.274;7.794;2022-07-18T01:24:36;4.05;;;1.92;;
21721;SDS011;11023;48.274;7.794;2022-07-18T01:27:04;2.40;;;1.98;;
21721;SDS011;11023;48.274;7.794;2022-07-18T01:29:30;2.88;;;2.05;;
21721;SDS011;11023;48.274;7.794;2022-07-18T01:31:56;2.97;;;2.10;;
21721;SDS011;11023;48.274;7.794;2022-07-18T01:34:28;3.55;;;2.13;;
21721;SDS011;11023;48.274;7.794;2022-07-18T01:36:54;2.90;;;2.00;;
21721;SDS011;11023;48.274;7.794;2022-07-18T01:39:19;4.10;;;1.90;;
21721;SDS011;11023;48.274;7.794;2022-07-18T01:41:45;4.63;;;2.08;;
21721;SDS011;11023;48.274;7.794;2022-07-18T01:44:10;5.20;;;2.00;;
21721;SDS011;11023;48.274;7.794;2022-07-18T01:46:36;4.68;;;1.90;;
21721;SDS011;11023;48.274;7.794;2022-07-18T01:49:02;4.78;;;2.30;;
21721;SDS011;11023;48.274;7.794;2022-07-18T01:51:27;4.78;;;2.22;;
21721;SDS011;11023;48.274;7.794;2022-07-18T01:53:57;6.35;;;2.42;;
21721;SDS011;11023;48.274;7.794;2022-07-18T01:56:26;4.50;;;2.20;;
21721;SDS011;11023;48.274;7.794;2022-07-18T01:58:52;5.80;;;2.17;;
21721;SDS011;11023;48.274;7.794;2022-07-18T02:01:18;2.40;;;1.95;;
21721;SDS011;11023;48.274;7.794;2022-07-18T02:03:44;2.50;;;2.10;;
21721;SDS011;11023;48.274;7.794;2022-07-18T02:06:09;5.80;;;2.35;;
21721;SDS011;11023;48.274;7.794;2022-07-18T02:08:35;4.22;;;2.20;;
21721;SDS011;11023;48.274;7.794;2022-07-18T02:11:01;2.60;;;1.95;;
21721;SDS011;11023;48.274;7.794;2022-07-18T02:13:26;3.80;;;2.30;;
21721;SDS011;11023;48.274;7.794;2022-07-18T02:15:52;3.85;;;2.10;;
21721;SDS011;11023;48.274;7.794;2022-07-18T02:18:20;4.13;;;2.00;;
21721;SDS011;11023;48.274;7.794;2022-07-18T02:20:46;3.17;;;2.25;;
21721;SDS011;11023;48.274;7.794;2022-07-18T02:23:12;3.22;;;2.10;;
21721;SDS011;11023;48.274;7.794;2022-07-18T02:25:38;3.67;;;2.08;;
21721;SDS011;11023;48.274;7.794;2022-07-18T02:28:04;3.15;;;2.13;;
21721;SDS011;11023;48.274;7.794;2022-07-18T02:30:30;4.22;;;2.28;;
21721;SDS011;11023;48.274;7.794;2022-07-18T02:32:56;3.75;;;2.28;;
21721;SDS011;11023;48.274;7.794;2022-07-18T02:35:21;3.13;;;2.33;;
21721;SDS011;11023;48.274;7.794;2022-07-18T02:37:47;2.53;;;2.10;;
21721;SDS011;11023;48.274;7.794;2022-07-18T02:40:13;4.03;;;2.40;;
21721;SDS011;11023;48.274;7.794;2022-07-18T02:42:38;6.20;;;2.30;;
21721;SDS011;11023;48.274;7.794;2022-07-18T02:45:05;4.72;;;2.17;;
21721;SDS011;11023;48.274;7.794;2022-07-18T02:47:31;3.10;;;2.13;;
21721;SDS011;11023;48.274;7.794;2022-07-18T02:49:57;2.85;;;1.90;;
21721;SDS011;11023;48.274;7.794;2022-07-18T02:52:23;6.68;;;2.35;;
21721;SDS011;11023;48.274;7.794;2022-07-18T02:54:49;3.15;;;2.45;;
21721;SDS011;11023;48.274;7.794;2022-07-18T02:57:15;2.60;;;2.10;;
21721;SDS011;11023;48.274;7.794;2022-07-18T02:59:40;4.28;;;2.30;;
21721;SDS011;11023;48.274;7.794;2022-07-18T03:02:06;4.82;;;2.72;;
21721;SDS011;11023;48.274;7.794;2022-07-18T03:04:32;3.10;;;2.45;;
21721;SDS011;11023;48.274;7.794;2022-07-18T03:06:58;8.52;;;2.58;;
21721;SDS011;11023;48.274;7.794;2022-07-18T03:09:24;4.47;;;2.53;;
21721;SDS011;11023;48.274;7.794;2022-07-18T03:11:52;4.05;;;2.40;;
21721;SDS011;11023;48.274;7.794;2022-07-18T03:14:19;3.33;;;2.10;;
21721;SDS011;11023;48.274;7.794;2022-07-18T03:16:45;4.60;;;2.58;;
21721;SDS011;11023;48.274;7.794;2022-07-18T03:19:11;4.13;;;3.10;;
21721;SDS011;11023;48.274;7.794;2022-07-18T03:21:36;5.75;;;3.63;;
21721;SDS011;11023;48.274;7.794;2022-07-18T03:24:02;3.53;;;3.03;;
21721;SDS011;11023;48.274;7.794;2022-07-18T03:26:28;5.03;;;2.97;;
21721;SDS011;11023;48.274;7.794;2022-07-18T03:28:54;5.43;;;2.78;;
21721;SDS011;11023;48.274;7.794;2022-07-18T03:31:19;3.42;;;2.45;;
21721;SDS011;11023;48.274;7.794;2022-07-18T03:33:45;4.32;;;2.40;;
21721;SDS011;11023;48.274;7.794;2022-07-18T03:36:11;4.72;;;2.30;;
21721;SDS011;11023;48.274;7.794;2022-07-18T03:38:37;3.83;;;2.40;;
21721;SDS011;11023;48.274;7.794;2022-07-18T03:41:08;5.35;;;2.30;;
21721;SDS011;11023;48.274;7.794;2022-07-18T03:43:37;5.80;;;2.50;;
21721;SDS011;11023;48.274;7.794;2022-07-18T03:46:04;4.72;;;2.30;;
21721;SDS011;11023;48.274;7.794;2022-07-18T03:48:30;6.72;;;2.40;;
21721;SDS011;11023;48.274;7.794;2022-07-18T03:50:55;4.00;;;2.40;;
21721;SDS011;11023;48.274;7.794;2022-07-18T03:53:21;4.97;;;2.25;;
21721;SDS011;11023;48.274;7.794;2022-07-18T03:55:47;3.40;;;2.47;;
21721;SDS011;11023;48.274;7.794;2022-07-18T03:58:15;3.78;;;2.25;;
21721;SDS011;11023;48.274;7.794;2022-07-18T04:00:41;6.03;;;2.70;;
21721;SDS011;11023;48.274;7.794;2022-07-18T04:03:07;3.30;;;2.67;;
21721;SDS011;11023;48.274;7.794;2022-07-18T04:05:32;4.32;;;2.42;;
21721;SDS011;11023;48.274;7.794;2022-07-18T04:07:58;4.68;;;2.28;;
21721;SDS011;11023;48.274;7.794;2022-07-18T04:10:24;4.40;;;2.80;;
21721;SDS011;11023;48.274;7.794;2022-07-18T04:12:54;5.68;;;2.70;;
21721;SDS011;11023;48.274;7.794;2022-07-18T04:15:21;4.18;;;2.70;;
21721;SDS011;11023;48.274;7.794;2022-07-18T04:17:49;7.82;;;2.60;;
21721;SDS011;11023;48.274;7.794;2022-07-18T04:20:15;5.65;;;2.60;;
21721;SDS011;11023;48.274;7.794;2022-07-18T04:22:53;3.30;;;2.50;;
21721;SDS011;11023;48.274;7.794;2022-07-18T04:25:24;4.20;;;2.50;;
21721;SDS011;11023;48.274;7.794;2022-07-18T04:27:51;3.35;;;2.30;;
21721;SDS011;11023;48.274;7.794;2022-07-18T04:30:18;4.82;;;2.42;;
21721;SDS011;11023;48.274;7.794;2022-07-18T04:32:45;4.80;;;2.53;;
21721;SDS011;11023;48.274;7.794;2022-07-18T04:35:12;5.13;;;2.47;;
21721;SDS011;11023;48.274;7.794;2022-07-18T04:37:38;3.70;;;2.40;;
21721;SDS011;11023;48.274;7.794;2022-07-18T04:40:04;5.93;;;2.83;;
21721;SDS011;11023;48.274;7.794;2022-07-18T04:42:31;3.47;;;2.80;;
21721;SDS011;11023;48.274;7.794;2022-07-18T04:44:57;6.10;;;2.60;;
21721;SDS011;11023;48.274;7.794;2022-07-18T04:47:24;4.05;;;2.60;;
21721;SDS011;11023;48.274;7.794;2022-07-18T04:49:50;4.03;;;2.22;;
21721;SDS011;11023;48.274;7.794;2022-07-18T04:52:16;3.70;;;2.60;;
21721;SDS011;11023;48.274;7.794;2022-07-18T04:54:41;2.88;;;2.30;;
21721;SDS011;11023;48.274;7.794;2022-07-18T04:57:07;3.17;;;2.30;;
21721;SDS011;11023;48.274;7.794;2022-07-18T04:59:35;5.18;;;2.92;;
21721;SDS011;11023;48.274;7.794;2022-07-18T05:02:01;4.57;;;2.30;;
21721;SDS011;11023;48.274;7.794;2022-07-18T05:04:27;7.63;;;2.70;;
21721;SDS011;11023;48.274;7.794;2022-07-18T05:06:53;9.65;;;2.65;;
21721;SDS011;11023;48.274;7.794;2022-07-18T05:09:19;6.53;;;2.42;;
21721;SDS011;11023;48.274;7.794;2022-07-18T05:11:45;6.00;;;2.58;;
21721;SDS011;11023;48.274;7.794;2022-07-18T05:14:11;4.07;;;2.38;;
21721;SDS011;11023;48.274;7.794;2022-07-18T05:16:36;6.93;;;2.53;;
21721;SDS011;11023;48.274;7.794;2022-07-18T05:19:02;8.60;;;2.72;;
21721;SDS011;11023;48.274;7.794;2022-07-18T05:21:28;6.53;;;2.70;;
21721;SDS011;11023;48.274;7.794;2022-07-18T05:23:53;5.28;;;2.67;;
21721;SDS011;11023;48.274;7.794;2022-07-18T05:26:19;7.10;;;2.30;;
21721;SDS011;11023;48.274;7.794;2022-07-18T05:28:45;4.15;;;2.45;;
21721;SDS011;11023;48.274;7.794;2022-07-18T05:31:11;11.65;;;2.50;;
21721;SDS011;11023;48.274;7.794;2022-07-18T05:33:37;3.92;;;2.05;;
21721;SDS011;11023;48.274;7.794;2022-07-18T05:36:03;4.85;;;2.28;;
21721;SDS011;11023;48.274;7.794;2022-07-18T05:38:29;6.15;;;2.50;;
21721;SDS011;11023;48.274;7.794;2022-07-18T05:40:54;4.75;;;2.35;;
21721;SDS011;11023;48.274;7.794;2022-07-18T05:43:20;14.52;;;3.00;;
21721;SDS011;11023;48.274;7.794;2022-07-18T05:45:46;10.35;;;2.80;;
21721;SDS011;11023;48.274;7.794;2022-07-18T05:48:11;10.45;;;3.25;;
21721;SDS011;11023;48.274;7.794;2022-07-18T05:50:37;8.95;;;2.70;;
21721;SDS011;11023;48.274;7.794;2022-07-18T05:53:03;6.78;;;2.70;;
21721;SDS011;11023;48.274;7.794;2022-07-18T05:55:29;6.13;;;3.13;;
21721;SDS011;11023;48.274;7.794;2022-07-18T05:57:55;5.45;;;2.63;;
21721;SDS011;11023;48.274;7.794;2022-07-18T06:00:20;4.55;;;2.78;;
21721;SDS011;11023;48.274;7.794;2022-07-18T06:02:47;3.35;;;2.40;;
21721;SDS011;11023;48.274;7.794;2022-07-18T06:05:13;3.83;;;2.22;;
21721;SDS011;11023;48.274;7.794;2022-07-18T06:07:39;5.00;;;2.50;;
21721;SDS011;11023;48.274;7.794;2022-07-18T06:10:05;6.82;;;2.15;;
21721;SDS011;11023;48.274;7.794;2022-07-18T06:12:31;4.82;;;2.10;;
21721;SDS011;11023;48.274;7.794;2022-07-18T06:14:58;4.40;;;2.28;;
21721;SDS011;11023;48.274;7.794;2022-07-18T06:17:25;3.85;;;1.80;;
21721;SDS011;11023;48.274;7.794;2022-07-18T06:19:52;3.78;;;1.83;;
21721;SDS011;11023;48.274;7.794;2022-07-18T06:22:19;5.90;;;1.83;;
21721;SDS011;11023;48.274;7.794;2022-07-18T06:24:45;3.78;;;1.73;;
21721;SDS011;11023;48.274;7.794;2022-07-18T06:27:10;2.58;;;1.88;;
21721;SDS011;11023;48.274;7.794;2022-07-18T06:29:36;4.32;;;2.00;;
21721;SDS011;11023;48.274;7.794;2022-07-18T06:32:02;4.10;;;1.70;;
21721;SDS011;11023;48.274;7.794;2022-07-18T06:34:27;4.88;;;1.88;;
21721;SDS011;11023;48.274;7.794;2022-07-18T06:36:53;4.43;;;1.92;;
21721;SDS011;11023;48.274;7.794;2022-07-18T06:39:19;3.75;;;1.83;;
21721;SDS011;11023;48.274;7.794;2022-07-18T06:41:44;6.47;;;1.92;;
21721;SDS011;11023;48.274;7.794;2022-07-18T06:44:10;5.65;;;2.00;;
21721;SDS011;11023;48.274;7.794;2022-07-18T06:46:37;4.07;;;1.95;;
21721;SDS011;11023;48.274;7.794;2022-07-18T06:49:03;6.15;;;2.05;;
21721;SDS011;11023;48.274;7.794;2022-07-18T06:51:29;5.70;;;1.90;;
21721;SDS011;11023;48.274;7.794;2022-07-18T06:53:56;3.05;;;1.70;;
21721;SDS011;11023;48.274;7.794;2022-07-18T06:56:22;5.80;;;1.85;;
21721;SDS011;11023;48.274;7.794;2022-07-18T06:58:48;6.07;;;2.10;;
21721;SDS011;11023;48.274;7.794;2022-07-18T07:01:16;4.97;;;1.90;;
21721;SDS011;11023;48.274;7.794;2022-07-18T07:03:44;5.22;;;1.95;;
21721;SDS011;11023;48.274;7.794;2022-07-18T07:06:10;5.35;;;1.70;;
21721;SDS011;11023;48.274;7.794;2022-07-18T07:08:36;5.78;;;1.75;;
21721;SDS011;11023;48.274;7.794;2022-07-18T07:11:02;4.80;;;1.63;;
21721;SDS011;11023;48.274;7.794;2022-07-18T07:13:28;5.20;;;2.03;;
21721;SDS011;11023;48.274;7.794;2022-07-18T07:15:53;2.90;;;1.60;;
21721;SDS011;11023;48.274;7.794;2022-07-18T07:18:19;3.15;;;1.55;;
21721;SDS011;11023;48.274;7.794;2022-07-18T07:20:45;3.22;;;1.80;;
21721;SDS011;11023;48.274;7.794;2022-07-18T07:23:12;5.30;;;1.92;;
21721;SDS011;11023;48.274;7.794;2022-07-18T07:25:39;3.67;;;2.20;;
21721;SDS011;11023;48.274;7.794;2022-07-18T07:28:05;3.22;;;2.17;;
21721;SDS011;11023;48.274;7.794;2022-07-18T07:30:32;5.57;;;2.53;;
21721;SDS011;11023;48.274;7.794;2022-07-18T07:32:58;6.68;;;2.50;;
21721;SDS011;11023;48.274;7.794;2022-07-18T07:35:24;4.30;;;2.40;;
21721;SDS011;11023;48.274;7.794;2022-07-18T07:37:55;4.63;;;2.10;;
21721;SDS011;11023;48.274;7.794;2022-07-18T07:40:22;3.58;;;2.05;;
21721;SDS011;11023;48.274;7.794;2022-07-18T07:42:50;5.57;;;2.28;;
21721;SDS011;11023;48.274;7.794;2022-07-18T07:45:16;3.97;;;2.00;;
21721;SDS011;11023;48.274;7.794;2022-07-18T07:47:42;3.75;;;2.03;;
21721;SDS011;11023;48.274;7.794;2022-07-18T07:50:09;5.38;;;1.83;;
21721;SDS011;11023;48.274;7.794;2022-07-18T07:52:35;3.55;;;2.10;;
21721;SDS011;11023;48.274;7.794;2022-07-18T07:55:02;7.82;;;2.22;;
21721;SDS011;11023;48.274;7.794;2022-07-18T07:57:29;7.25;;;2.30;;
21721;SDS011;11023;48.274;7.794;2022-07-18T07:59:55;7.05;;;2.30;;
21721;SDS011;11023;48.274;7.794;2022-07-18T08:02:20;3.15;;;1.67;;
21721;SDS011;11023;48.274;7.794;2022-07-18T08:04:46;5.57;;;2.05;;
21721;SDS011;11023;48.274;7.794;2022-07-18T08:07:12;4.32;;;2.00;;
21721;SDS011;11023;48.274;7.794;2022-07-18T08:09:37;5.65;;;1.80;;
21721;SDS011;11023;48.274;7.794;2022-07-18T08:12:03;4.07;;;1.80;;
21721;SDS011;11023;48.274;7.794;2022-07-18T08:14:29;3.53;;;2.20;;
21721;SDS011;11023;48.274;7.794;2022-07-18T08:16:57;3.15;;;2.03;;
21721;SDS011;11023;48.274;7.794;2022-07-18T08:19:23;6.90;;;2.22;;
21721;SDS011;11023;48.274;7.794;2022-07-18T08:21:49;8.93;;;2.25;;
21721;SDS011;11023;48.274;7.794;2022-07-18T08:24:15;7.63;;;2.10;;
21721;SDS011;11023;48.274;7.794;2022-07-18T08:26:40;4.40;;;2.28;;
21721;SDS011;11023;48.274;7.794;2022-07-18T08:29:06;5.05;;;2.20;;
21721;SDS011;11023;48.274;7.794;2022-07-18T08:31:32;3.53;;;2.00;;
21721;SDS011;11023;48.274;7.794;2022-07-18T08:33:58;9.70;;;2.28;;
21721;SDS011;11023;48.274;7.794;2022-07-18T08:36:24;7.65;;;2.75;;
21721;SDS011;11023;48.274;7.794;2022-07-18T08:38:50;3.42;;;1.90;;
21721;SDS011;11023;48.274;7.794;2022-07-18T08:41:17;6.63;;;2.45;;
21721;SDS011;11023;48.274;7.794;2022-07-18T08:43:45;3.92;;;2.08;;
21721;SDS011;11023;48.274;7.794;2022-07-18T08:46:11;11.02;;;2.38;;
21721;SDS011;11023;48.274;7.794;2022-07-18T08:48:37;5.65;;;2.17;;
21721;SDS011;11023;48.274;7.794;2022-07-18T08:51:05;2.53;;;1.80;;
21721;SDS011;11023;48.274;7.794;2022-07-18T08:53:31;4.03;;;1.80;;
21721;SDS011;11023;48.274;7.794;2022-07-18T08:55:59;6.28;;;2.08;;
21721;SDS011;11023;48.274;7.794;2022-07-18T08:58:25;3.60;;;2.25;;
21721;SDS011;11023;48.274;7.794;2022-07-18T09:00:50;3.92;;;1.83;;
21721;SDS011;11023;48.274;7.794;2022-07-18T09:03:16;3.92;;;2.00;;
21721;SDS011;11023;48.274;7.794;2022-07-18T09:05:42;7.80;;;1.98;;
21721;SDS011;11023;48.274;7.794;2022-07-18T09:08:09;3.17;;;1.88;;
21721;SDS011;11023;48.274;7.794;2022-07-18T09:10:58;3.53;;;1.90;;
21721;SDS011;11023;48.274;7.794;2022-07-18T09:13:30;4.63;;;2.10;;
21721;SDS011;11023;48.274;7.794;2022-07-18T09:16:05;7.40;;;1.83;;
21721;SDS011;11023;48.274;7.794;2022-07-18T09:23:34;4.70;;;1.80;;
21721;SDS011;11023;48.274;7.794;2022-07-18T09:26:02;4.90;;;1.98;;
21721;SDS011;11023;48.274;7.794;2022-07-18T09:28:28;4.85;;;2.20;;
21721;SDS011;11023;48.274;7.794;2022-07-18T09:31:17;3.85;;;2.13;;
21721;SDS011;11023;48.274;7.794;2022-07-18T09:33:54;4.53;;;2.20;;
21721;SDS011;11023;48.274;7.794;2022-07-18T09:36:21;3.95;;;2.00;;
21721;SDS011;11023;48.274;7.794;2022-07-18T09:38:47;2.85;;;1.80;;
21721;SDS011;11023;48.274;7.794;2022-07-18T09:41:13;4.88;;;1.85;;
21721;SDS011;11023;48.274;7.794;2022-07-18T09:43:39;2.97;;;1.80;;
21721;SDS011;11023;48.274;7.794;2022-07-18T09:46:05;4.25;;;1.80;;
21721;SDS011;11023;48.274;7.794;2022-07-18T09:48:31;6.70;;;2.00;;
21721;SDS011;11023;48.274;7.794;2022-07-18T09:51:04;8.40;;;2.30;;
21721;SDS011;11023;48.274;7.794;2022-07-18T09:53:34;5.57;;;1.90;;
21721;SDS011;11023;48.274;7.794;2022-07-18T09:58:27;5.10;;;2.05;;
21721;SDS011;11023;48.274;7.794;2022-07-18T10:00:55;5.63;;;1.92;;
21721;SDS011;11023;48.274;7.794;2022-07-18T10:03:22;7.05;;;2.17;;
21721;SDS011;11023;48.274;7.794;2022-07-18T10:05:49;4.38;;;2.13;;
21721;SDS011;11023;48.274;7.794;2022-07-18T10:08:17;3.17;;;1.73;;
21721;SDS011;11023;48.274;7.794;2022-07-18T10:10:46;4.93;;;2.15;;
21721;SDS011;11023;48.274;7.794;2022-07-18T10:13:13;3.22;;;1.90;;
21721;SDS011;11023;48.274;7.794;2022-07-18T10:15:41;4.00;;;2.05;;
21721;SDS011;11023;48.274;7.794;2022-07-18T10:18:11;6.05;;;1.95;;
21721;SDS011;11023;48.274;7.794;2022-07-18T10:20:42;7.95;;;2.20;;
21721;SDS011;11023;48.274;7.794;2022-07-18T10:23:20;10.25;;;2.40;;
21721;SDS011;11023;48.274;7.794;2022-07-18T10:26:08;4.70;;;1.90;;
21721;SDS011;11023;48.274;7.794;2022-07-18T10:36:37;3.92;;;1.80;;
21721;SDS011;11023;48.274;7.794;2022-07-18T10:39:15;5.43;;;2.22;;
21721;SDS011;11023;48.274;7.794;2022-07-18T10:57:31;8.77;;;2.30;;
21721;SDS011;11023;48.274;7.794;2022-07-18T11:00:02;2.85;;;1.92;;
21721;SDS011;11023;48.274;7.794;2022-07-18T11:02:38;2.83;;;1.75;;
21721;SDS011;11023;48.274;7.794;2022-07-18T11:16:01;3.45;;;2.00;;
21721;SDS011;11023;48.274;7.794;2022-07-18T11:21:26;5.43;;;2.00;;
21721;SDS011;11023;48.274;7.794;2022-07-18T11:24:06;10.82;;;2.50;;
21721;SDS011;11023;48.274;7.794;2022-07-18T11:26:34;5.50;;;2.00;;
21721;SDS011;11023;48.274;7.794;2022-07-18T11:29:05;4.20;;;1.80;;
21721;SDS011;11023;48.274;7.794;2022-07-18T11:31:42;4.93;;;1.83;;
21721;SDS011;11023;48.274;7.794;2022-07-18T11:34:10;5.88;;;2.22;;
21721;SDS011;11023;48.274;7.794;2022-07-18T11:36:38;4.88;;;2.10;;
21721;SDS011;11023;48.274;7.794;2022-07-18T11:39:04;3.80;;;2.00;;
21721;SDS011;11023;48.274;7.794;2022-07-18T11:41:30;4.20;;;1.98;;
21721;SDS011;11023;48.274;7.794;2022-07-18T11:43:56;3.90;;;1.70;;
21721;SDS011;11023;48.274;7.794;2022-07-18T11:46:26;4.05;;;2.03;;
21721;SDS011;11023;48.274;7.794;2022-07-18T11:49:02;5.25;;;1.98;;
21721;SDS011;11023;48.274;7.794;2022-07-18T11:51:36;4.38;;;1.90;;
21721;SDS011;11023;48.274;7.794;2022-07-18T11:54:07;4.25;;;1.92;;
21721;SDS011;11023;48.274;7.794;2022-07-18T11:56:33;2.75;;;1.98;;
21721;SDS011;11023;48.274;7.794;2022-07-18T11:59:13;4.20;;;2.10;;
21721;SDS011;11023;48.274;7.794;2022-07-18T12:01:40;3.28;;;2.00;;
21721;SDS011;11023;48.274;7.794;2022-07-18T12:04:06;5.05;;;2.10;;
21721;SDS011;11023;48.274;7.794;2022-07-18T12:06:39;6.45;;;2.30;;
21721;SDS011;11023;48.274;7.794;2022-07-18T12:09:05;2.72;;;2.22;;
21721;SDS011;11023;48.274;7.794;2022-07-18T12:11:32;5.20;;;2.45;;
21721;SDS011;11023;48.274;7.794;2022-07-18T12:14:01;3.72;;;2.70;;
21721;SDS011;11023;48.274;7.794;2022-07-18T12:16:40;4.47;;;2.38;;
21721;SDS011;11023;48.274;7.794;2022-07-18T12:32:29;7.68;;;3.30;;
21721;SDS011;11023;48.274;7.794;2022-07-18T12:35:04;7.05;;;2.80;;
21721;SDS011;11023;48.274;7.794;2022-07-18T12:37:32;5.50;;;3.00;;
21721;SDS011;11023;48.274;7.794;2022-07-18T12:39:58;8.85;;;4.47;;
21721;SDS011;11023;48.274;7.794;2022-07-18T12:45:37;6.97;;;5.07;;
21721;SDS011;11023;48.274;7.794;2022-07-18T12:48:04;8.05;;;4.25;;
21721;SDS011;11023;48.274;7.794;2022-07-18T12:50:31;5.55;;;3.80;;
21721;SDS011;11023;48.274;7.794;2022-07-18T12:52:57;9.75;;;5.07;;
21721;SDS011;11023;48.274;7.794;2022-07-18T12:55:24;10.93;;;5.10;;
21721;SDS011;11023;48.274;7.794;2022-07-18T12:57:50;6.72;;;4.63;;
21721;SDS011;11023;48.274;7.794;2022-07-18T13:00:16;12.45;;;7.05;;
21721;SDS011;11023;48.274;7.794;2022-07-18T13:02:42;17.27;;;7.70;;
21721;SDS011;11023;48.274;7.794;2022-07-18T13:05:08;9.95;;;6.97;;
21721;SDS011;11023;48.274;7.794;2022-07-18T13:07:34;12.20;;;6.78;;
21721;SDS011;11023;48.274;7.794;2022-07-18T13:10:00;12.18;;;6.57;;
21721;SDS011;11023;48.274;7.794;2022-07-18T13:12:26;10.15;;;5.95;;
21721;SDS011;11023;48.274;7.794;2022-07-18T13:14:51;12.38;;;6.20;;
21721;SDS011;11023;48.274;7.794;2022-07-18T13:17:17;9.10;;;5.55;;
21721;SDS011;11023;48.274;7.794;2022-07-18T13:19:43;11.93;;;5.35;;
21721;SDS011;11023;48.274;7.794;2022-07-18T13:22:09;12.88;;;6.40;;
21721;SDS011;11023;48.274;7.794;2022-07-18T13:24:35;12.10;;;6.97;;
21721;SDS011;11023;48.274;7.794;2022-07-18T13:27:02;12.55;;;6.57;;
21721;SDS011;11023;48.274;7.794;2022-07-18T13:29:28;12.73;;;6.13;;
21721;SDS011;11023;48.274;7.794;2022-07-18T13:31:54;10.98;;;5.20;;
21721;SDS011;11023;48.274;7.794;2022-07-18T13:34:23;7.70;;;4.45;;
21721;SDS011;11023;48.274;7.794;2022-07-18T13:36:50;7.07;;;5.00;;
21721;SDS011;11023;48.274;7.794;2022-07-18T13:39:16;9.27;;;4.22;;
21721;SDS011;11023;48.274;7.794;2022-07-18T13:41:43;9.05;;;4.38;;
21721;SDS011;11023;48.274;7.794;2022-07-18T13:44:09;11.50;;;5.05;;
21721;SDS011;11023;48.274;7.794;2022-07-18T13:46:34;13.55;;;5.50;;
21721;SDS011;11023;48.274;7.794;2022-07-18T13:49:00;11.80;;;6.35;;
21721;SDS011;11023;48.274;7.794;2022-07-18T13:51:26;12.45;;;6.30;;
21721;SDS011;11023;48.274;7.794;2022-07-18T13:53:51;14.18;;;6.35;;
21721;SDS011;11023;48.274;7.794;2022-07-18T13:56:17;11.98;;;5.78;;
21721;SDS011;11023;48.274;7.794;2022-07-18T13:58:42;13.63;;;5.90;;
21721;SDS011;11023;48.274;7.794;2022-07-18T14:01:08;14.77;;;6.60;;
21721;SDS011;11023;48.274;7.794;2022-07-18T14:03:34;17.25;;;6.57;;
21721;SDS011;11023;48.274;7.794;2022-07-18T14:06:00;13.00;;;6.18;;
21721;SDS011;11023;48.274;7.794;2022-07-18T14:08:25;13.13;;;6.22;;
21721;SDS011;11023;48.274;7.794;2022-07-18T14:10:51;11.93;;;6.38;;
21721;SDS011;11023;48.274;7.794;2022-07-18T14:13:17;14.13;;;6.15;;
21721;SDS011;11023;48.274;7.794;2022-07-18T14:15:42;11.70;;;5.82;;
21721;SDS011;11023;48.274;7.794;2022-07-18T14:18:08;10.00;;;4.93;;
21721;SDS011;11023;48.274;7.794;2022-07-18T14:20:33;9.10;;;5.30;;
21721;SDS011;11023;48.274;7.794;2022-07-18T14:22:59;8.07;;;4.07;;
21721;SDS011;11023;48.274;7.794;2022-07-18T14:25:25;14.25;;;4.22;;
21721;SDS011;11023;48.274;7.794;2022-07-18T14:27:51;7.82;;;4.40;;
21721;SDS011;11023;48.274;7.794;2022-07-18T14:30:16;14.43;;;4.85;;
21721;SDS011;11023;48.274;7.794;2022-07-18T14:32:42;8.70;;;4.50;;
21721;SDS011;11023;48.274;7.794;2022-07-18T14:35:09;9.98;;;3.95;;
21721;SDS011;11023;48.274;7.794;2022-07-18T14:37:35;11.27;;;4.20;;
21721;SDS011;11023;48.274;7.794;2022-07-18T14:40:02;8.63;;;3.83;;
21721;SDS011;11023;48.274;7.794;2022-07-18T14:42:29;10.45;;;4.18;;
21721;SDS011;11023;48.274;7.794;2022-07-18T14:44:54;13.10;;;4.30;;
21721;SDS011;11023;48.274;7.794;2022-07-18T14:47:20;9.77;;;3.95;;
21721;SDS011;11023;48.274;7.794;2022-07-18T14:49:47;6.70;;;3.47;;
21721;SDS011;11023;48.274;7.794;2022-07-18T14:52:12;6.03;;;3.25;;
21721;SDS011;11023;48.274;7.794;2022-07-18T14:54:38;7.72;;;3.38;;
21721;SDS011;11023;48.274;7.794;2022-07-18T14:57:04;6.05;;;2.80;;
21721;SDS011;11023;48.274;7.794;2022-07-18T14:59:30;8.73;;;2.95;;
21721;SDS011;11023;48.274;7.794;2022-07-18T15:01:57;6.25;;;2.80;;
21721;SDS011;11023;48.274;7.794;2022-07-18T15:04:24;4.53;;;2.50;;
21721;SDS011;11023;48.274;7.794;2022-07-18T15:06:50;7.30;;;2.95;;
21721;SDS011;11023;48.274;7.794;2022-07-18T15:09:16;5.55;;;2.45;;
21721;SDS011;11023;48.274;7.794;2022-07-18T15:11:42;4.60;;;2.58;;
21721;SDS011;11023;48.274;7.794;2022-07-18T15:14:07;8.20;;;2.53;;
21721;SDS011;11023;48.274;7.794;2022-07-18T15:16:33;5.40;;;2.38;;
21721;SDS011;11023;48.274;7.794;2022-07-18T15:18:59;6.47;;;2.50;;
21721;SDS011;11023;48.274;7.794;2022-07-18T15:21:25;3.30;;;2.20;;
21721;SDS011;11023;48.274;7.794;2022-07-18T15:23:51;7.45;;;2.42;;
21721;SDS011;11023;48.274;7.794;2022-07-18T15:26:16;6.22;;;2.40;;
21721;SDS011;11023;48.274;7.794;2022-07-18T15:28:42;6.15;;;2.40;;
21721;SDS011;11023;48.274;7.794;2022-07-18T15:31:08;8.07;;;2.20;;
21721;SDS011;11023;48.274;7.794;2022-07-18T15:33:33;4.10;;;2.30;;
21721;SDS011;11023;48.274;7.794;2022-07-18T15:35:59;4.90;;;2.20;;
21721;SDS011;11023;48.274;7.794;2022-07-18T15:38:25;3.55;;;2.10;;
21721;SDS011;11023;48.274;7.794;2022-07-18T15:40:50;3.45;;;1.90;;
21721;SDS011;11023;48.274;7.794;2022-07-18T15:43:16;6.20;;;2.22;;
21721;SDS011;11023;48.274;7.794;2022-07-18T15:45:42;5.80;;;2.15;;